Time;durP1;ratioP1;P1;durP2;ratioP2;P2;SDS_P1;SDS_P2;PMS_P1;PMS_P2;Temp;Humidity;BMP_temperature;BMP_pressure;BME280_temperature;BME280_humidity;BME280_pressure;Samples;Min_cycle;Max_cycle;Signal;HPM_P1;HPM_P2
2022/10/04 00:00:40;;;;;;;27.77;18.40;;;;;;;11.18;100.00;102292.69;5028999;28;20052;-67
2022/10/04 00:03:15;;;;;;;26.83;19.13;;;;;;;11.15;100.00;102301.31;5027151;28;20037;-67
2022/10/04 00:05:41;;;;;;;26.50;17.13;;;;;;;11.14;100.00;102305.13;5025605;28;20046;-67
2022/10/04 00:08:26;;;;;;;28.50;18.45;;;;;;;11.15;100.00;102301.31;5028213;28;20098;-67
2022/10/04 00:11:12;;;;;;;29.48;18.27;;;;;;;11.15;100.00;102298.56;5027179;28;20304;-67
2022/10/04 00:13:39;;;;;;;24.20;17.50;;;;;;;11.10;100.00;102292.81;5027760;28;20120;-67
2022/10/04 00:16:05;;;;;;;22.92;18.33;;;;;;;11.12;100.00;102285.25;5027386;28;20029;-67
2022/10/04 00:18:39;;;;;;;27.65;17.63;;;;;;;11.08;100.00;102282.03;5009623;28;20035;-67
2022/10/04 00:21:07;;;;;;;24.63;17.75;;;;;;;11.04;100.00;102277.13;5026978;28;20025;-67
2022/10/04 00:23:35;;;;;;;23.10;17.58;;;;;;;11.02;100.00;102274.59;5027233;28;20032;-67
2022/10/04 00:26:02;;;;;;;;;;;;;;;11.13;100.00;102276.78;5026223;28;20048;-67
2022/10/04 00:28:34;;;;;;;26.67;17.65;;;;;;;11.04;100.00;102274.38;5026452;28;19913;-67
2022/10/04 00:31:23;;;;;;;31.17;19.80;;;;;;;11.05;100.00;102276.06;5027146;28;20029;-67
2022/10/04 00:33:55;;;;;;;26.80;19.25;;;;;;;10.97;100.00;102267.97;5017582;28;20053;-67
2022/10/04 00:36:23;;;;;;;31.08;19.17;;;;;;;10.95;100.00;102267.31;5026639;28;20341;-67
2022/10/04 00:39:03;;;;;;;;;;;;;;;11.06;100.00;102264.06;5028243;28;20026;-67
2022/10/04 00:41:57;;;;;;;26.52;17.40;;;;;;;11.00;100.00;102264.81;5027268;28;19923;-67
2022/10/04 00:44:37;;;;;;;25.73;18.33;;;;;;;10.91;100.00;102264.13;5028548;28;20029;-67
2022/10/04 00:47:18;;;;;;;29.17;18.77;;;;;;;10.91;100.00;102262.22;5024904;28;20045;-67
2022/10/04 00:49:45;;;;;;;26.38;18.92;;;;;;;10.86;100.00;102261.97;5027244;28;20025;-67
2022/10/04 00:52:17;;;;;;;28.40;19.15;;;;;;;10.86;100.00;102267.47;5027599;28;20361;-67
2022/10/04 00:54:49;;;;;;;30.45;19.48;;;;;;;10.87;100.00;102265.56;5026433;28;20044;-67
2022/10/04 00:57:31;;;;;;;29.15;19.63;;;;;;;10.86;100.00;102270.22;5027118;28;20071;-67
2022/10/04 01:00:04;;;;;;;27.65;19.05;;;;;;;10.82;100.00;102257.91;5025581;28;20040;-67
2022/10/04 01:02:45;;;;;;;27.50;18.70;;;;;;;10.80;100.00;102248.19;5024055;28;20038;-67
2022/10/04 01:05:22;;;;;;;29.40;19.00;;;;;;;10.78;100.00;102239.28;5019304;28;20056;-67
2022/10/04 01:07:53;;;;;;;26.10;17.90;;;;;;;10.72;100.00;102240.91;5027606;28;20041;-67
2022/10/04 01:10:37;;;;;;;25.75;18.15;;;;;;;10.74;100.00;102237.97;5026412;28;20035;-67
2022/10/04 01:13:06;;;;;;;28.98;18.00;;;;;;;10.71;100.00;102228.22;5027900;28;20029;-67
2022/10/04 01:15:49;;;;;;;28.13;19.35;;;;;;;10.68;100.00;102223.13;5026939;28;20733;-67
2022/10/04 01:18:17;;;;;;;28.38;18.60;;;;;;;10.65;100.00;102226.28;5027902;28;20030;-67
2022/10/04 01:20:56;;;;;;;29.45;18.25;;;;;;;10.64;100.00;102228.19;5026920;28;20025;-67
2022/10/04 01:23:43;;;;;;;25.45;18.52;;;;;;;10.60;100.00;102226.03;5025916;28;20036;-67
2022/10/04 01:26:23;;;;;;;27.48;19.27;;;;;;;10.57;100.00;102237.41;5023725;28;20908;-67
2022/10/04 01:28:48;;;;;;;28.75;19.45;;;;;;;10.49;100.00;102232.91;5026836;28;20112;-67
2022/10/04 01:31:14;;;;;;;33.67;20.38;;;;;;;10.47;100.00;102231.38;5027795;28;20160;-67
2022/10/04 01:33:40;;;;;;;27.73;19.67;;;;;;;10.41;100.00;102218.44;5025533;28;20025;-67
2022/10/04 01:36:05;;;;;;;28.70;18.27;;;;;;;10.37;100.00;102226.22;5027548;28;20387;-67
2022/10/04 01:38:31;;;;;;;26.70;18.77;;;;;;;10.33;100.00;102225.75;5026306;28;20443;-67
2022/10/04 01:40:59;;;;;;;27.58;19.38;;;;;;;10.32;100.00;102221.28;5027773;28;20439;-67
2022/10/04 01:43:28;;;;;;;;;;;;;;;10.44;100.00;102218.03;5026611;28;20017;-67
2022/10/04 01:46:01;;;;;;;28.30;18.33;;;;;;;10.33;100.00;102217.50;5023625;28;20016;-67
2022/10/04 01:48:34;;;;;;;28.05;17.92;;;;;;;10.35;100.00;102207.19;5027923;28;20025;-67
2022/10/04 01:51:19;;;;;;;23.63;18.48;;;;;;;10.39;100.00;102208.50;5026828;28;20059;-67
2022/10/04 01:53:54;;;;;;;29.10;20.27;;;;;;;10.39;100.00;102200.25;5007105;28;20160;-67
2022/10/04 01:56:26;;;;;;;29.95;19.98;;;;;;;10.39;100.00;102203.00;5027434;28;20041;-67
2022/10/04 01:58:58;;;;;;;26.85;19.52;;;;;;;10.40;100.00;102198.38;5026737;28;20021;-67
2022/10/04 02:01:38;;;;;;;30.02;20.33;;;;;;;10.42;100.00;102204.50;5027594;28;20036;-67
2022/10/04 02:04:12;;;;;;;32.10;19.45;;;;;;;10.38;100.00;102195.78;5025654;28;20024;-67
2022/10/04 02:06:41;;;;;;;31.60;20.73;;;;;;;10.34;100.00;102190.88;5026216;28;20402;-67
2022/10/04 02:09:11;;;;;;;29.20;19.10;;;;;;;10.28;100.00;102189.78;5025794;28;20040;-67
2022/10/04 02:11:40;;;;;;;26.25;18.40;;;;;;;10.22;100.00;102182.28;5027127;28;20026;-67
2022/10/04 02:14:14;;;;;;;25.33;18.50;;;;;;;10.19;100.00;102176.34;5026615;28;20037;-67
2022/10/04 02:16:43;;;;;;;27.52;19.13;;;;;;;10.15;100.00;102175.91;5027189;28;20034;-67
2022/10/04 02:19:10;;;;;;;27.58;19.75;;;;;;;10.12;100.00;102163.41;5025719;28;20152;-67
2022/10/04 02:21:36;;;;;;;26.42;18.52;;;;;;;10.13;100.00;102145.03;5025060;28;20407;-67
2022/10/04 02:24:03;;;;;;;30.60;19.80;;;;;;;10.19;100.00;102152.50;5025132;28;20111;-67
2022/10/04 02:26:29;;;;;;;30.90;19.50;;;;;;;10.23;100.00;102155.69;5024854;28;20028;-67
2022/10/04 02:28:54;;;;;;;26.15;18.98;;;;;;;10.25;100.00;102151.75;5024930;28;20025;-67
2022/10/04 02:34:26;;;;;;;26.10;18.65;;;;;;;10.27;100.00;102154.28;4964838;28;20058;-67
2022/10/04 02:36:52;;;;;;;25.95;20.13;;;;;;;10.23;100.00;102147.44;4964170;28;20038;-67
2022/10/04 02:39:25;;;;;;;29.10;21.20;;;;;;;10.20;100.00;102140.47;4992979;28;20037;-67
2022/10/04 02:42:00;;;;;;;28.02;19.65;;;;;;;10.15;100.00;102134.72;5007785;28;20040;-67
2022/10/04 02:45:02;;;;;;;30.75;19.83;;;;;;;10.14;100.00;102133.03;5024710;28;20061;-67
2022/10/04 02:47:39;;;;;;;25.33;18.55;;;;;;;10.06;100.00;102130.41;4943370;28;20042;-67
2022/10/04 02:50:18;;;;;;;31.17;20.50;;;;;;;10.02;100.00;102121.69;5025719;28;20040;-67
2022/10/04 02:52:49;;;;;;;26.27;18.92;;;;;;;9.98;100.00;102111.31;5024300;28;20377;-69
2022/10/04 02:55:28;;;;;;;29.40;18.85;;;;;;;9.96;100.00;102103.28;5019093;28;20034;-67
2022/10/04 02:57:54;;;;;;;27.70;18.42;;;;;;;9.91;100.00;102102.16;5012253;28;20045;-66
2022/10/04 03:00:24;;;;;;;27.52;18.30;;;;;;;9.86;100.00;102098.09;5026827;28;20392;-67
2022/10/04 03:03:16;;;;;;;27.55;19.02;;;;;;;9.88;100.00;102096.03;5025140;28;20034;-67
2022/10/04 03:05:45;;;;;;;29.90;18.40;;;;;;;9.86;100.00;102098.09;5025192;28;20080;-67
2022/10/04 03:08:12;;;;;;;27.48;20.42;;;;;;;9.82;100.00;102095.94;5025712;28;20029;-66
2022/10/04 03:10:41;;;;;;;28.30;19.08;;;;;;;9.78;100.00;102095.50;5026081;28;20021;-67
2022/10/04 03:13:07;;;;;;;30.42;19.27;;;;;;;9.78;100.00;102089.16;5025459;28;20051;-67
2022/10/04 03:15:32;;;;;;;32.72;21.40;;;;;;;9.76;100.00;102086.59;5023915;28;20029;-67
2022/10/04 03:17:58;;;;;;;31.02;18.92;;;;;;;9.75;100.00;102092.31;5025454;28;20418;-67
2022/10/04 03:20:24;;;;;;;27.50;19.20;;;;;;;9.73;100.00;102086.13;5026241;28;20029;-67
2022/10/04 03:22:54;;;;;;;31.38;20.02;;;;;;;9.71;100.00;102085.50;5023383;28;20044;-67
2022/10/04 03:25:25;;;;;;;26.50;19.05;;;;;;;9.68;100.00;102077.66;5025778;28;20116;-67
2022/10/04 03:27:51;;;;;;;29.67;18.70;;;;;;;9.64;100.00;102074.47;5026304;28;20033;-67
2022/10/04 03:30:20;;;;;;;32.13;19.05;;;;;;;9.63;100.00;102067.28;5027287;28;20025;-67
2022/10/04 03:32:46;;;;;;;33.88;21.08;;;;;;;9.59;100.00;102066.81;5029288;28;20039;-67
2022/10/04 03:35:36;;;;;;;28.75;20.10;;;;;;;9.62;100.00;102062.81;5028157;28;20410;-67
2022/10/04 03:38:07;;;;;;;30.85;20.90;;;;;;;9.54;100.00;102071.19;5028701;28;20033;-67
2022/10/04 03:40:36;;;;;;;31.05;20.17;;;;;;;9.51;100.00;102077.03;5029383;28;20041;-67
2022/10/04 03:43:04;;;;;;;29.40;20.65;;;;;;;9.50;100.00;102062.50;5027162;28;20036;-66
2022/10/04 03:45:32;;;;;;;30.63;20.43;;;;;;;9.47;100.00;102075.72;5028800;28;20441;-67
2022/10/04 03:48:04;;;;;;;32.92;22.50;;;;;;;9.45;100.00;102072.34;5029094;28;20307;-66
2022/10/04 03:50:39;;;;;;;29.83;20.83;;;;;;;9.39;100.00;102073.97;5029236;28;20120;-67
2022/10/04 03:53:18;;;;;;;34.17;20.38;;;;;;;9.39;100.00;102059.41;5027573;28;20061;-67
2022/10/04 03:55:44;;;;;;;27.65;20.75;;;;;;;9.30;100.00;102064.16;5012928;28;20439;-67
2022/10/04 03:58:13;;;;;;;31.80;20.45;;;;;;;9.26;100.00;102057.34;5028792;28;20045;-67
2022/10/04 04:00:44;;;;;;;37.05;19.50;;;;;;;9.20;100.00;102053.50;5028976;28;20820;-67
2022/10/04 04:03:15;;;;;;;28.67;19.98;;;;;;;9.18;100.00;102047.34;5028380;28;20124;-67
2022/10/04 04:05:52;;;;;;;26.40;19.20;;;;;;;9.13;100.00;102052.56;5028864;28;20056;-67
2022/10/04 04:08:31;;;;;;;25.95;19.15;;;;;;;9.07;100.00;102056.06;5026914;28;20091;-66
2022/10/04 04:11:01;;;;;;;26.92;19.85;;;;;;;9.01;100.00;102060.41;5027861;28;20381;-67
2022/10/04 04:13:41;;;;;;;28.75;20.92;;;;;;;9.02;100.00;102056.66;5027465;28;20038;-67
2022/10/04 04:16:08;;;;;;;33.83;20.13;;;;;;;8.98;100.00;102060.81;5027985;28;20625;-66
2022/10/04 04:18:36;;;;;;;26.97;19.47;;;;;;;9.00;100.00;102057.88;5029434;28;20032;-66
2022/10/04 04:21:03;;;;;;;27.33;19.63;;;;;;;8.97;100.00;102058.22;5028660;28;20120;-67
2022/10/04 04:23:35;;;;;;;26.97;19.97;;;;;;;8.95;100.00;102052.94;5023626;28;20036;-67
2022/10/04 04:26:20;;;;;;;28.73;21.40;;;;;;;9.02;100.00;102055.78;5025732;28;20040;-67
2022/10/04 04:28:53;;;;;;;31.00;20.85;;;;;;;9.03;100.00;102054.75;5016013;28;20052;-67
2022/10/04 04:31:24;;;;;;;30.63;20.63;;;;;;;9.06;100.00;102057.09;5029786;28;20037;-66
2022/10/04 04:34:00;;;;;;;31.02;19.67;;;;;;;9.07;100.00;102054.19;5028490;28;20460;-66
2022/10/04 04:36:28;;;;;;;28.38;20.17;;;;;;;9.07;100.00;102058.78;5024418;28;20378;-66
2022/10/04 04:41:49;;;;;;;28.13;19.13;;;;;;;9.06;100.00;102048.88;5016881;28;20047;-67
2022/10/04 04:44:17;;;;;;;27.85;19.33;;;;;;;9.09;100.00;102043.88;5027940;28;20457;-66
2022/10/04 04:46:43;;;;;;;;;;;;;;;9.22;100.00;102045.06;5028266;28;20045;-66
2022/10/04 04:49:11;;;;;;;30.98;20.60;;;;;;;9.17;100.00;102037.41;5027595;28;19975;-66
2022/10/04 04:51:38;;;;;;;29.52;19.92;;;;;;;9.16;100.00;102041.19;5024972;28;20057;-66
2022/10/04 04:54:06;;;;;;;29.92;19.88;;;;;;;9.17;100.00;102037.41;5026117;28;20030;-66
2022/10/04 04:56:33;;;;;;;29.63;19.17;;;;;;;9.20;100.00;102036.19;5026502;28;20053;-66
2022/10/04 04:59:02;;;;;;;29.88;20.30;;;;;;;9.20;100.00;102039.78;5003106;28;20029;-66
2022/10/04 05:01:34;;;;;;;31.50;19.90;;;;;;;9.24;100.00;102040.25;5011031;28;20524;-66
2022/10/04 05:04:11;;;;;;;33.15;20.33;;;;;;;9.25;100.00;102044.69;5025571;28;20120;-67
2022/10/04 05:06:39;;;;;;;27.63;19.05;;;;;;;9.22;100.00;102036.84;5023191;28;20413;-67
2022/10/04 05:09:05;;;;;;;30.10;19.10;;;;;;;9.21;100.00;102037.88;5024492;28;20029;-67
2022/10/04 05:11:33;;;;;;;30.60;19.13;;;;;;;9.20;100.00;102041.69;5025906;28;20036;-67
2022/10/04 05:14:04;;;;;;;30.85;20.02;;;;;;;9.15;100.00;102028.53;5025580;28;20436;-67
2022/10/04 05:16:41;;;;;;;30.05;20.40;;;;;;;9.17;100.00;102031.09;5024140;28;20068;-68
2022/10/04 05:19:20;;;;;;;27.10;18.90;;;;;;;9.12;100.00;102028.06;5024978;28;20028;-67
2022/10/04 05:21:47;;;;;;;29.33;19.40;;;;;;;9.08;100.00;102027.63;4991301;28;20030;-67
2022/10/04 05:24:33;;;;;;;27.30;19.30;;;;;;;9.07;100.00;102025.91;5016976;28;20021;-67
2022/10/04 05:27:03;;;;;;;30.10;18.40;;;;;;;9.02;100.00;102029.25;5025213;28;20036;-67
2022/10/04 05:29:34;;;;;;;27.90;19.90;;;;;;;9.00;100.00;102030.47;5023650;28;20029;-66
2022/10/04 05:32:30;;;;;;;29.20;20.38;;;;;;;9.02;100.00;102045.69;5007446;28;20026;-66
2022/10/04 05:34:56;;;;;;;26.63;18.60;;;;;;;8.98;100.00;102049.84;5023776;28;20036;-67
2022/10/04 05:37:31;;;;;;;29.58;18.15;;;;;;;8.94;100.00;102039.47;5024461;28;20348;-68
2022/10/04 05:40:21;;;;;;;29.13;19.27;;;;;;;8.95;100.00;102046.63;5022494;28;20087;-67
2022/10/04 05:42:48;;;;;;;28.95;19.38;;;;;;;8.92;100.00;102055.22;5025072;28;20552;-67
2022/10/04 05:45:23;;;;;;;28.10;19.55;;;;;;;8.90;100.00;102046.34;4998092;28;20056;-67
2022/10/04 05:47:54;;;;;;;27.17;19.05;;;;;;;8.92;100.00;102038.78;5023822;28;20060;-67
2022/10/04 05:50:30;;;;;;;31.25;19.67;;;;;;;8.92;100.00;102044.25;5024173;28;20124;-67
2022/10/04 05:53:23;;;;;;;25.90;18.30;;;;;;;8.94;100.00;102053.16;5024054;28;20063;-68
2022/10/04 05:55:57;;;;;;;30.38;18.52;;;;;;;8.93;100.00;102056.94;5023886;28;20464;-68
2022/10/04 05:58:34;;;;;;;26.63;18.80;;;;;;;8.88;100.00;102059.41;5023703;28;20065;-67
2022/10/04 06:01:12;;;;;;;28.35;18.80;;;;;;;8.88;100.00;102059.41;5021589;28;20041;-68
2022/10/04 06:04:11;;;;;;;29.80;19.42;;;;;;;8.90;100.00;102058.16;5022775;28;20030;-67
2022/10/04 06:07:01;;;;;;;29.90;19.30;;;;;;;8.86;100.00;102058.72;5005502;28;20513;-67
2022/10/04 06:09:26;;;;;;;28.60;19.20;;;;;;;8.82;100.00;102064.59;5012512;28;20037;-67
2022/10/04 06:12:07;;;;;;;24.67;18.50;;;;;;;8.79;100.00;102059.47;5024439;28;20480;-67
2022/10/04 06:14:55;;;;;;;28.77;17.75;;;;;;;8.83;100.00;102062.72;5022999;28;20468;-68
2022/10/04 06:18:05;;;;;;;29.05;19.52;;;;;;;8.85;100.00;102055.13;5023176;28;20545;-67
2022/10/04 06:20:45;;;;;;;27.70;18.88;;;;;;;8.85;100.00;102057.88;4997170;28;20067;-68
2022/10/04 06:23:17;;;;;;;27.48;18.70;;;;;;;8.84;100.00;102056.19;5021064;28;20037;-68
2022/10/04 06:25:50;;;;;;;26.85;18.02;;;;;;;8.84;100.00;102059.78;5025177;28;20700;-68
2022/10/04 06:28:33;;;;;;;28.85;18.60;;;;;;;8.91;100.00;102059.00;5025159;28;20029;-68
2022/10/04 06:31:26;;;;;;;26.40;17.80;;;;;;;8.98;100.00;102055.31;5025435;28;20060;-67
2022/10/04 06:34:12;;;;;;;24.33;18.55;;;;;;;9.06;100.00;102051.63;5025276;28;20033;-68
2022/10/04 06:37:08;;;;;;;29.63;18.67;;;;;;;9.13;100.00;102051.72;5024296;28;20085;-68
2022/10/04 06:39:49;;;;;;;28.45;18.35;;;;;;;9.19;100.00;102050.94;5024409;28;20022;-68
2022/10/04 06:42:35;;;;;;;28.90;17.85;;;;;;;9.23;100.00;102049.53;5024092;28;20025;-67
2022/10/04 06:45:28;;;;;;;27.48;17.33;;;;;;;9.30;100.00;102054.03;5025321;28;20369;-68
2022/10/04 06:48:28;;;;;;;25.92;18.17;;;;;;;9.34;100.00;102052.59;5025183;28;20030;-68
2022/10/04 06:51:12;;;;;;;28.23;17.92;;;;;;;9.32;100.00;102038.22;5024152;28;20356;-68
2022/10/04 06:53:49;;;;;;;29.90;17.20;;;;;;;9.35;100.00;102039.75;5024523;28;20032;-68
2022/10/04 06:56:24;;;;;;;25.73;16.80;;;;;;;9.34;100.00;102038.06;5024797;28;20033;-68
2022/10/04 06:59:09;;;;;;;25.85;15.77;;;;;;;9.32;100.00;102040.13;5024800;28;20033;-68
2022/10/04 07:01:45;;;;;;;29.35;17.23;;;;;;;9.33;100.00;102042.69;5025294;28;20037;-68
2022/10/04 07:04:29;;;;;;;29.30;16.15;;;;;;;9.35;100.00;102023.28;5024423;28;20519;-68
2022/10/04 07:07:25;;;;;;;24.60;15.75;;;;;;;9.38;100.00;102033.88;5025615;28;20057;-68
2022/10/04 07:10:15;;;;;;;22.15;14.63;;;;;;;9.44;100.00;102029.53;5028779;28;20033;-68
2022/10/04 07:12:44;;;;;;;26.48;15.10;;;;;;;9.46;100.00;102030.16;5026880;28;20037;-68
2022/10/04 07:15:20;;;;;;;23.65;14.90;;;;;;;9.53;100.00;102031.06;5028578;28;20029;-68
2022/10/04 07:17:49;;;;;;;24.48;14.80;;;;;;;9.58;100.00;102028.63;5028674;28;20029;-68
2022/10/04 07:20:29;;;;;;;24.55;14.05;;;;;;;9.66;100.00;102024.88;5028655;28;20036;-68
2022/10/04 07:23:13;;;;;;;24.30;13.88;;;;;;;9.74;100.00;102025.59;5027636;28;20306;-68
2022/10/04 07:25:47;;;;;;;27.40;13.95;;;;;;;9.78;100.00;102024.19;5026263;28;20021;-68
2022/10/04 07:31:26;;;;;;;21.70;12.85;;;;;;;9.92;100.00;102030.63;5028291;28;20386;-68
2022/10/04 07:34:10;;;;;;;21.42;12.98;;;;;;;10.03;100.00;102029.22;5028182;28;20029;-68
2022/10/04 07:36:56;;;;;;;27.13;12.82;;;;;;;10.07;100.00;102022.31;5026662;28;20029;-68
2022/10/04 07:39:28;;;;;;;23.77;12.30;;;;;;;10.17;100.00;102028.28;5028217;28;20064;-68
2022/10/04 07:42:12;;;;;;;21.20;11.90;;;;;;;10.28;100.00;102029.66;5027721;28;20024;-68
2022/10/04 07:44:41;;;;;;;22.67;12.50;;;;;;;10.39;100.00;102040.09;5026950;28;20030;-68
2022/10/04 07:47:26;;;;;;;22.88;12.23;;;;;;;10.47;100.00;102039.94;5027922;28;20112;-68
2022/10/04 07:49:52;;;;;;;19.98;12.00;;;;;;;10.57;100.00;102047.84;5027278;28;20076;-68
2022/10/04 07:52:42;;;;;;;18.83;10.63;;;;;;;10.69;100.00;102037.13;5027703;28;20024;-68
2022/10/04 07:55:40;;;;;;;20.13;11.25;;;;;;;10.82;100.00;102035.31;5016015;28;20029;-68
2022/10/04 07:58:21;;;;;;;19.00;11.18;;;;;;;10.89;99.52;102033.44;5005660;28;20053;-68
2022/10/04 08:00:57;;;;;;;20.77;11.50;;;;;;;11.03;98.21;102028.00;4999662;28;20071;-68
2022/10/04 08:03:44;;;;;;;19.98;12.45;;;;;;;11.19;98.58;102030.38;5017279;28;20116;-68
2022/10/04 08:06:23;;;;;;;26.00;12.13;;;;;;;11.34;96.67;102020.06;5013465;28;20069;-68
2022/10/04 08:09:20;;;;;;;22.17;11.73;;;;;;;11.57;95.87;102027.13;5008312;28;20132;-68
2022/10/04 08:12:26;;;;;;;21.85;11.55;;;;;;;12.27;93.83;102031.25;5010969;28;20105;-68
2022/10/04 08:15:09;;;;;;;20.77;10.23;;;;;;;12.53;89.50;102029.50;4892528;29;20032;-68
2022/10/04 08:17:54;;;;;;;21.63;10.48;;;;;;;12.34;89.03;102025.72;5011262;28;20804;-69
2022/10/04 08:20:35;;;;;;;19.73;9.95;;;;;;;12.67;88.27;102020.13;5019144;28;20069;-69
2022/10/04 08:23:15;;;;;;;18.67;10.50;;;;;;;12.86;87.93;102018.38;5016608;28;20069;-68
2022/10/04 08:25:56;;;;;;;20.00;10.43;;;;;;;12.78;87.08;102019.47;5024110;28;20036;-69
2022/10/04 08:31:51;;;;;;;19.08;9.75;;;;;;;13.06;88.06;102010.03;5025965;28;20514;-69
2022/10/04 08:34:42;;;;;;;19.95;9.75;;;;;;;13.29;86.97;102017.81;5026545;28;20033;-69
2022/10/04 08:37:26;;;;;;;20.17;9.63;;;;;;;13.39;84.58;102024.56;5025717;28;20648;-70
2022/10/04 08:39:58;;;;;;;22.27;9.57;;;;;;;13.61;84.51;102018.69;5022126;28;20051;-68
2022/10/04 08:42:40;;;;;;;18.08;9.75;;;;;;;14.14;82.61;102021.03;5028239;28;20133;-68
2022/10/04 08:45:46;;;;;;;17.63;9.45;;;;;;;14.30;80.89;102020.50;5023226;28;20041;-69
2022/10/04 08:48:46;;;;;;;16.23;9.70;;;;;;;14.20;80.88;102023.75;5020713;28;20037;-68
2022/10/04 08:51:38;;;;;;;18.35;9.95;;;;;;;14.33;79.49;102019.16;5023419;28;20034;-69
2022/10/04 08:54:26;;;;;;;19.27;10.20;;;;;;;14.56;78.11;102018.56;5025298;28;20038;-69
2022/10/04 08:57:04;;;;;;;18.75;10.13;;;;;;;15.07;77.09;102020.09;5025404;28;20037;-68
2022/10/04 08:59:56;;;;;;;17.52;9.82;;;;;;;15.70;74.37;102019.69;5020511;28;20035;-69
2022/10/04 09:02:46;;;;;;;19.73;9.82;;;;;;;16.78;69.32;102007.38;5019091;28;20033;-68
2022/10/04 09:05:39;;;;;;;19.13;8.95;;;;;;;18.26;67.33;102011.06;5025615;28;20050;-68
2022/10/04 09:08:33;;;;;;;17.75;9.73;;;;;;;20.40;58.34;102021.09;5025387;28;20087;-68
2022/10/04 09:11:20;;;;;;;17.85;9.57;;;;;;;21.70;54.68;102021.19;5024343;28;20029;-68
2022/10/04 09:14:03;;;;;;;18.23;8.30;;;;;;;22.50;49.71;102023.44;5025411;28;20037;-68
2022/10/04 09:16:45;;;;;;;18.58;8.65;;;;;;;23.26;51.34;102031.63;5023472;28;20029;-68
2022/10/04 09:19:22;;;;;;;19.52;8.68;;;;;;;23.64;49.19;102020.81;5026851;28;20034;-69
2022/10/04 09:22:16;;;;;;;15.40;8.35;;;;;;;24.82;49.63;102015.84;5021194;28;20044;-68
2022/10/04 09:25:10;;;;;;;16.88;9.55;;;;;;;25.03;41.51;102018.41;5021502;28;20029;-69
2022/10/04 09:28:00;;;;;;;14.82;8.77;;;;;;;25.80;44.84;102009.78;4954846;28;20117;-69
2022/10/04 09:30:45;;;;;;;17.67;8.75;;;;;;;25.78;41.73;102014.91;5024082;28;20475;-69
2022/10/04 09:33:35;;;;;;;16.70;8.45;;;;;;;25.65;40.19;102010.84;5023189;28;20424;-69
2022/10/04 09:36:06;;;;;;;17.02;8.45;;;;;;;26.00;41.66;102003.81;5022443;28;20619;-69
2022/10/04 09:38:44;;;;;;;15.45;8.38;;;;;;;26.49;41.10;101993.16;5024167;28;20032;-68
2022/10/04 09:41:37;;;;;;;16.42;8.40;;;;;;;26.14;40.12;101999.06;5024366;28;20075;-67
2022/10/04 09:44:33;;;;;;;15.18;7.93;;;;;;;25.98;38.70;101994.84;5022833;28;20101;-67
2022/10/04 09:47:21;;;;;;;16.37;7.67;;;;;;;25.65;41.74;101991.16;5024816;28;20057;-67
2022/10/04 09:50:16;;;;;;;15.82;8.02;;;;;;;26.23;40.58;101996.41;5021358;28;20033;-67
2022/10/04 09:53:02;;;;;;;16.08;8.15;;;;;;;25.74;39.95;102006.19;5023558;28;20087;-67
2022/10/04 09:55:44;;;;;;;17.73;8.20;;;;;;;25.82;40.30;101999.91;5022890;28;20484;-67
2022/10/04 09:58:27;;;;;;;17.92;7.57;;;;;;;26.19;37.71;101998.16;5025440;28;20112;-67
2022/10/04 10:01:21;;;;;;;12.57;7.53;;;;;;;25.90;39.41;102003.16;5004692;28;20558;-67
2022/10/04 10:04:19;;;;;;;15.63;7.72;;;;;;;25.59;39.79;101996.00;5025153;28;20033;-68
2022/10/04 10:07:03;;;;;;;13.52;8.07;;;;;;;25.43;39.01;101993.72;4989844;28;20034;-67
2022/10/04 10:16:15;;;;;;;12.30;7.15;;;;;;;26.74;38.21;101981.38;5024575;28;20048;-67
2022/10/04 10:18:59;;;;;;;11.88;5.95;;;;;;;27.48;38.79;101986.03;5019232;28;20039;-67
2022/10/04 10:21:30;;;;;;;13.05;6.20;;;;;;;28.09;34.68;101974.09;5017925;28;20025;-67
2022/10/04 10:24:08;;;;;;;11.73;6.18;;;;;;;27.95;34.36;101967.66;5025037;28;20441;-65
2022/10/04 10:26:33;;;;;;;;;;;;;;;28.96;34.78;101974.53;5025473;28;20038;-65
2022/10/04 10:29:32;;;;;;;12.35;6.28;;;;;;;28.71;34.53;101967.63;5025920;28;19923;-65
2022/10/04 10:32:19;;;;;;;11.60;6.43;;;;;;;28.67;34.22;101969.41;5024546;28;20412;-66
2022/10/04 10:35:14;;;;;;;11.45;5.65;;;;;;;28.65;35.24;101964.09;5026491;28;20025;-66
2022/10/04 10:37:48;;;;;;;11.07;5.55;;;;;;;28.73;33.22;101964.44;5025540;28;20033;-66
2022/10/04 10:40:50;;;;;;;10.93;5.82;;;;;;;28.59;34.82;101970.19;5026454;28;20033;-66
2022/10/04 10:43:50;;;;;;;12.95;5.85;;;;;;;27.88;34.29;101968.13;5024588;28;20030;-66
2022/10/04 10:46:17;;;;;;;11.20;5.93;;;;;;;27.53;34.78;101981.09;5015639;28;20061;-66
2022/10/04 10:49:07;;;;;;;10.68;5.53;;;;;;;28.08;34.97;101978.06;5032892;28;20021;-66
2022/10/04 10:52:24;;;;;;;13.05;5.38;;;;;;;28.84;35.44;101989.28;5026248;28;20352;-66
2022/10/04 10:55:14;;;;;;;10.32;5.95;;;;;;;28.67;33.10;101986.38;4988567;28;20136;-66
2022/10/04 10:57:55;;;;;;;11.88;5.70;;;;;;;29.19;34.68;101980.91;5030388;28;20042;-66
2022/10/04 11:01:01;;;;;;;10.93;5.88;;;;;;;28.99;33.80;101973.03;5031444;28;20025;-66
2022/10/04 11:03:29;;;;;;;12.02;5.95;;;;;;;27.72;33.57;101969.66;5028067;28;20033;-66
2022/10/04 11:06:14;;;;;;;12.35;6.43;;;;;;;27.77;36.14;101963.88;5030523;28;20129;-66
2022/10/04 11:09:18;;;;;;;9.68;5.38;;;;;;;28.55;33.97;101966.38;5031914;28;20029;-65
2022/10/04 11:12:03;;;;;;;11.43;5.55;;;;;;;28.11;33.76;101953.97;5029645;28;20119;-65
2022/10/04 11:14:54;;;;;;;11.35;5.53;;;;;;;28.73;34.44;101947.47;5012824;28;20792;-65
2022/10/04 11:17:40;;;;;;;11.77;5.63;;;;;;;28.52;32.85;101952.91;5016527;28;20084;-67
2022/10/04 11:20:42;;;;;;;10.57;5.70;;;;;;;28.53;34.36;101946.06;5023478;28;20052;-66
2022/10/04 11:23:33;;;;;;;9.75;5.07;;;;;;;28.57;33.23;101939.44;5031111;28;20579;-66
2022/10/04 11:26:38;;;;;;;12.15;5.10;;;;;;;29.00;32.56;101944.44;5028609;28;20039;-66
2022/10/04 11:29:40;;;;;;;11.73;4.38;;;;;;;29.61;31.65;101933.22;5031974;28;20033;-66
2022/10/04 11:32:26;;;;;;;8.93;4.78;;;;;;;29.43;30.58;101924.66;5030654;28;20033;-66
2022/10/04 11:35:10;;;;;;;9.38;4.53;;;;;;;29.46;32.47;101926.84;5028392;28;20030;-66
2022/10/04 11:38:07;;;;;;;11.50;4.78;;;;;;;29.05;31.89;101926.50;5031441;28;20052;-66
2022/10/04 11:40:54;;;;;;;9.07;4.32;;;;;;;29.26;31.78;101919.03;5030980;28;20033;-67
2022/10/04 11:43:31;;;;;;;10.03;4.10;;;;;;;29.09;31.25;101914.16;5031691;28;20037;-67
2022/10/04 11:46:42;;;;;;;8.63;4.32;;;;;;;29.42;32.08;101908.84;5028013;28;20292;-66
2022/10/04 11:49:21;;;;;;;10.68;4.82;;;;;;;28.60;31.21;101916.19;5022583;28;20477;-67
2022/10/04 11:51:57;;;;;;;9.55;4.93;;;;;;;26.51;34.94;101907.19;5029679;28;20136;-67
2022/10/04 11:54:57;;;;;;;8.48;4.03;;;;;;;25.14;39.09;101901.06;5017241;28;20033;-66
2022/10/04 11:57:43;;;;;;;10.32;4.47;;;;;;;23.67;40.60;101895.97;5027336;28;20439;-66
2022/10/04 12:00:15;;;;;;;10.13;4.80;;;;;;;22.79;41.87;101898.44;5024581;28;20042;-67
2022/10/04 12:02:55;;;;;;;10.57;4.38;;;;;;;22.17;43.24;101905.38;5027711;28;20408;-66
2022/10/04 12:05:30;;;;;;;10.30;4.20;;;;;;;21.70;43.70;101903.75;5027418;28;20060;-66
2022/10/04 12:08:01;;;;;;;10.15;4.32;;;;;;;21.72;44.92;101897.84;5026658;28;20037;-66
2022/10/04 12:10:37;;;;;;;8.20;4.07;;;;;;;21.42;43.83;101896.72;5028944;28;20037;-66
2022/10/04 12:13:38;;;;;;;7.30;3.88;;;;;;;21.10;45.96;101908.09;5025135;28;20033;-66
2022/10/04 12:16:30;;;;;;;8.32;4.07;;;;;;;20.90;47.46;101905.25;5025563;28;20435;-66
2022/10/04 12:19:14;;;;;;;8.15;4.32;;;;;;;20.71;47.81;101902.13;5022119;28;20049;-66
2022/10/04 12:21:57;;;;;;;7.30;3.60;;;;;;;20.54;48.27;101895.91;5024668;28;20025;-66
2022/10/04 12:24:56;;;;;;;8.85;3.53;;;;;;;20.62;47.88;101889.78;5029017;28;20112;-66